Time;durP1;ratioP1;P1;durP2;ratioP2;P2;SDS_P1;SDS_P2;PMS_P1;PMS_P2;Temp;Humidity;BMP_temperature;BMP_pressure;BME280_temperature;BME280_humidity;BME280_pressure;Samples;Min_cycle;Max_cycle;Signal;HPM_P1;HPM_P2
2022/10/07 00:01:52;;;;;;;5.45;3.63;;;10.30;88.80;;;;;;5064215;28;20430;-72
2022/10/07 00:04:19;;;;;;;5.32;3.88;;;10.30;90.00;;;;;;5054601;28;20449;-72
2022/10/07 00:06:46;;;;;;;5.80;3.70;;;10.20;89.10;;;;;;5047780;28;20423;-72
2022/10/07 00:09:12;;;;;;;6.60;4.00;;;10.20;88.90;;;;;;5045035;28;20784;-72
2022/10/07 00:11:40;;;;;;;5.55;3.50;;;10.10;89.40;;;;;;5064723;28;20434;-72
2022/10/07 00:14:08;;;;;;;6.32;3.95;;;10.10;90.00;;;;;;5064475;28;20475;-72
2022/10/07 00:16:37;;;;;;;5.72;4.00;;;10.10;90.10;;;;;;5064065;28;20416;-71
2022/10/07 00:19:06;;;;;;;4.78;3.42;;;10.00;90.10;;;;;;5054999;28;20440;-72
2022/10/07 00:21:35;;;;;;;4.88;3.63;;;10.00;90.10;;;;;;5065295;28;20426;-72
2022/10/07 00:24:03;;;;;;;5.50;3.45;;;10.00;90.80;;;;;;5066392;28;20798;-72
2022/10/07 00:26:33;;;;;;;9.23;3.80;;;9.90;90.40;;;;;;5066940;28;20423;-72
2022/10/07 00:29:00;;;;;;;6.20;3.60;;;9.90;90.60;;;;;;5064687;28;20427;-72
2022/10/07 00:31:29;;;;;;;6.13;3.35;;;9.90;90.50;;;;;;5063364;28;20427;-72
2022/10/07 00:33:57;;;;;;;5.13;3.45;;;9.90;90.60;;;;;;5058715;28;20515;-73
2022/10/07 00:36:26;;;;;;;6.95;3.50;;;9.90;90.30;;;;;;5054788;28;20423;-72
2022/10/07 00:38:55;;;;;;;5.90;3.70;;;9.90;90.40;;;;;;5054685;28;20419;-72
2022/10/07 00:41:24;;;;;;;5.65;3.70;;;9.90;90.20;;;;;;5059050;28;20412;-72
2022/10/07 00:43:51;;;;;;;6.20;3.30;;;9.90;90.20;;;;;;5064237;28;20921;-72
2022/10/07 00:46:28;;;;;;;4.85;3.38;;;9.90;90.40;;;;;;5059212;28;20544;-72
2022/10/07 00:48:57;;;;;;;7.22;3.80;;;9.90;90.30;;;;;;5055426;28;20443;-72
2022/10/07 00:51:24;;;;;;;6.40;3.60;;;9.90;90.10;;;;;;5048931;28;20421;-72
2022/10/07 00:53:54;;;;;;;8.25;3.70;;;9.80;90.30;;;;;;5067436;28;20766;-73
2022/10/07 00:56:23;;;;;;;7.55;3.50;;;9.80;90.20;;;;;;5067775;28;20533;-72
2022/10/07 00:58:51;;;;;;;7.45;3.70;;;9.70;90.50;;;;;;5067698;28;20415;-73
2022/10/07 01:01:19;;;;;;;4.17;3.30;;;9.80;90.40;;;;;;5067304;28;20496;-72
2022/10/07 01:03:47;;;;;;;5.78;3.60;;;9.70;90.30;;;;;;5060036;28;20419;-72
2022/10/07 01:06:15;;;;;;;6.93;3.70;;;9.70;90.60;;;;;;5068805;28;20411;-72
2022/10/07 01:08:45;;;;;;;6.60;3.50;;;9.70;90.50;;;;;;5068450;28;20434;-72
2022/10/07 01:11:23;;;;;;;6.88;3.55;;;9.70;90.60;;;;;;5067540;28;20435;-72
2022/10/07 01:14:01;;;;;;;6.95;3.70;;;9.60;90.70;;;;;;5068213;28;20420;-73
2022/10/07 01:16:34;;;;;;;6.82;4.03;;;9.50;90.80;;;;;;5058315;28;20438;-72
2022/10/07 01:19:09;;;;;;;6.63;3.90;;;9.60;90.90;;;;;;5049940;28;20417;-75
2022/10/07 01:21:42;;;;;;;7.75;3.72;;;9.50;90.90;;;;;;5050933;28;20506;-72
2022/10/07 01:24:21;;;;;;;6.50;4.18;;;9.50;91.00;;;;;;5067961;28;20431;-72
2022/10/07 01:26:56;;;;;;;6.85;4.05;;;9.50;91.00;;;;;;5068166;28;20896;-72
2022/10/07 01:29:27;;;;;;;5.32;3.70;;;9.40;91.00;;;;;;5057706;28;20818;-72
2022/10/07 01:32:00;;;;;;;6.15;4.18;;;9.40;91.20;;;;;;5065036;28;20431;-72
2022/10/07 01:34:27;;;;;;;8.00;4.10;;;9.40;91.10;;;;;;5064169;28;20456;-72
2022/10/07 01:36:58;;;;;;;6.60;3.60;;;9.40;91.10;;;;;;5058763;28;20511;-72
2022/10/07 01:39:30;;;;;;;6.50;3.85;;;9.40;91.00;;;;;;5067525;28;20430;-73
2022/10/07 01:41:59;;;;;;;7.57;4.07;;;9.40;90.90;;;;;;5067048;28;21046;-72
2022/10/07 01:44:29;;;;;;;7.07;3.50;;;9.30;90.70;;;;;;5060495;28;20807;-72
2022/10/07 01:46:55;;;;;;;5.70;3.70;;;9.30;90.80;;;;;;5055249;28;20413;-72
2022/10/07 01:49:22;;;;;;;5.97;4.05;;;9.30;90.80;;;;;;5067055;28;20964;-72
2022/10/07 01:52:02;;;;;;;4.97;3.67;;;9.30;90.80;;;;;;5067206;28;20419;-72
2022/10/07 01:54:40;;;;;;;5.28;3.70;;;9.30;90.90;;;;;;5067268;28;20891;-72
2022/10/07 01:57:21;;;;;;;6.53;3.70;;;9.20;90.70;;;;;;5067005;28;20415;-72
2022/10/07 02:00:08;;;;;;;6.38;3.95;;;9.20;90.80;;;;;;5053864;28;20440;-72
2022/10/07 02:02:55;;;;;;;6.15;4.10;;;9.10;90.80;;;;;;5046969;28;20421;-72
2022/10/07 02:05:30;;;;;;;7.15;3.58;;;9.10;90.90;;;;;;5046909;28;20424;-72
2022/10/07 02:08:13;;;;;;;7.63;4.10;;;9.10;91.00;;;;;;5055141;28;20425;-72
2022/10/07 02:10:52;;;;;;;4.50;3.70;;;9.10;90.80;;;;;;5066028;28;20459;-72
2022/10/07 02:13:28;;;;;;;5.75;4.00;;;9.10;90.90;;;;;;5055955;28;21096;-72
2022/10/07 02:16:02;;;;;;;7.15;4.05;;;9.10;91.10;;;;;;5052447;28;20452;-72
2022/10/07 02:18:31;;;;;;;7.03;4.10;;;9.10;91.10;;;;;;5052574;28;20430;-72
2022/10/07 02:21:02;;;;;;;6.40;4.00;;;9.10;90.90;;;;;;5063863;28;20506;-73
2022/10/07 02:23:33;;;;;;;6.25;3.83;;;9.00;91.00;;;;;;5060551;28;20457;-72
2022/10/07 02:26:02;;;;;;;7.78;3.92;;;8.90;91.30;;;;;;5061153;28;20439;-72
2022/10/07 02:28:33;;;;;;;6.10;3.60;;;8.90;91.50;;;;;;5056319;28;20805;-72
2022/10/07 02:31:02;;;;;;;6.28;3.55;;;8.90;91.80;;;;;;5054990;28;20866;-72
2022/10/07 02:33:31;;;;;;;8.95;4.60;;;8.90;91.80;;;;;;5052115;28;20421;-72
2022/10/07 02:36:01;;;;;;;7.72;3.72;;;8.90;91.80;;;;;;5057213;28;20425;-72
2022/10/07 02:38:29;;;;;;;6.43;3.85;;;8.90;91.80;;;;;;5058822;28;20433;-72
2022/10/07 02:41:05;;;;;;;8.68;4.10;;;8.90;91.90;;;;;;5056406;28;20423;-72
2022/10/07 02:43:39;;;;;;;8.00;3.95;;;8.90;91.80;;;;;;5053930;28;20480;-72
2022/10/07 02:46:11;;;;;;;5.38;3.67;;;8.90;91.90;;;;;;5066179;28;20525;-72
2022/10/07 02:48:44;;;;;;;7.40;4.10;;;8.90;92.20;;;;;;5065175;28;20427;-72
2022/10/07 02:51:17;;;;;;;6.18;4.32;;;8.90;92.20;;;;;;5057584;28;20431;-72
2022/10/07 02:53:45;;;;;;;7.68;4.00;;;8.90;92.10;;;;;;5056416;28;20986;-72
2022/10/07 02:56:13;;;;;;;7.30;4.17;;;8.80;92.10;;;;;;5049674;28;20463;-72
2022/10/07 02:58:44;;;;;;;7.22;3.63;;;8.90;92.10;;;;;;5054494;28;20421;-72
2022/10/07 03:01:15;;;;;;;6.70;4.20;;;8.80;92.10;;;;;;5045579;28;20525;-72
2022/10/07 03:03:42;;;;;;;6.32;3.88;;;8.80;91.90;;;;;;5047972;28;20442;-73
2022/10/07 03:06:08;;;;;;;5.37;4.00;;;8.80;92.00;;;;;;5054001;28;20433;-72
2022/10/07 03:08:36;;;;;;;5.13;4.13;;;8.80;91.90;;;;;;5053765;28;20453;-72
2022/10/07 03:11:02;;;;;;;6.60;4.10;;;8.80;91.70;;;;;;5045467;28;20432;-72
2022/10/07 03:13:30;;;;;;;6.30;3.70;;;8.70;91.60;;;;;;5063431;28;20423;-71
2022/10/07 03:15:58;;;;;;;7.32;4.13;;;8.70;91.70;;;;;;5047838;28;20480;-72
2022/10/07 03:18:28;;;;;;;8.07;4.00;;;8.70;91.70;;;;;;5046444;28;20575;-71
2022/10/07 03:20:55;;;;;;;6.85;4.00;;;8.60;91.80;;;;;;5055829;28;21258;-72
2022/10/07 03:23:22;;;;;;;6.82;4.03;;;8.60;91.90;;;;;;5053591;28;20438;-71
2022/10/07 03:25:51;;;;;;;7.82;3.78;;;8.50;92.10;;;;;;5045984;28;20420;-71
2022/10/07 03:28:19;;;;;;;6.80;3.50;;;8.50;92.00;;;;;;5056022;28;20895;-72
2022/10/07 03:30:46;;;;;;;7.28;4.50;;;8.60;92.10;;;;;;5058162;28;20417;-75
2022/10/07 03:33:15;;;;;;;7.05;4.30;;;8.60;92.00;;;;;;5059791;28;20421;-72
2022/10/07 03:35:41;;;;;;;6.20;4.30;;;8.60;92.00;;;;;;5083199;28;20753;-78
2022/10/07 03:38:09;;;;;;;6.07;4.53;;;8.60;91.90;;;;;;5083817;28;20420;-72
2022/10/07 03:40:36;;;;;;;6.38;4.00;;;8.50;92.00;;;;;;5082887;28;20482;-72
2022/10/07 03:43:03;;;;;;;6.57;4.00;;;8.50;92.00;;;;;;5070548;28;20462;-72
2022/10/07 03:45:30;;;;;;;6.18;4.03;;;8.50;91.80;;;;;;5073791;28;20491;-72
2022/10/07 03:47:57;;;;;;;7.93;4.30;;;8.50;91.80;;;;;;5061406;28;20475;-71
2022/10/07 03:50:26;;;;;;;6.43;4.40;;;8.40;91.90;;;;;;5076312;28;20412;-72
2022/10/07 03:52:53;;;;;;;6.32;4.20;;;8.40;92.00;;;;;;5078740;28;20419;-72
2022/10/07 03:55:20;;;;;;;7.72;4.00;;;8.40;92.20;;;;;;5074283;28;20860;-71
2022/10/07 03:57:50;;;;;;;7.57;4.75;;;8.40;92.50;;;;;;5063501;28;20442;-71
2022/10/07 04:00:18;;;;;;;7.80;4.10;;;8.40;92.70;;;;;;5053318;28;20444;-72
2022/10/07 04:02:44;;;;;;;7.28;4.13;;;8.40;92.60;;;;;;5050691;28;20468;-72
2022/10/07 04:05:11;;;;;;;7.20;4.40;;;8.30;92.40;;;;;;5058772;28;20413;-71
2022/10/07 04:07:39;;;;;;;6.13;4.00;;;8.30;92.70;;;;;;5065211;28;20508;-71
2022/10/07 04:10:06;;;;;;;6.03;4.10;;;8.30;92.90;;;;;;5088477;28;20457;-72
2022/10/07 04:12:40;;;;;;;7.00;4.30;;;8.30;93.10;;;;;;5076884;28;20423;-71
2022/10/07 04:15:08;;;;;;;9.77;4.20;;;8.30;93.10;;;;;;5080225;28;20482;-73
2022/10/07 04:17:35;;;;;;;6.22;4.10;;;8.30;92.90;;;;;;5088040;28;20455;-72
2022/10/07 04:20:02;;;;;;;6.93;4.15;;;8.30;93.00;;;;;;5077134;28;20429;-75
2022/10/07 04:22:28;;;;;;;9.95;4.40;;;8.30;93.00;;;;;;5053505;28;20456;-72
2022/10/07 04:27:42;;;;;;;5.90;3.97;;;8.30;92.90;;;;;;5050339;28;20450;-72
2022/10/07 04:30:09;;;;;;;7.53;4.20;;;8.20;92.80;;;;;;5064362;28;20504;-72
2022/10/07 04:32:36;;;;;;;6.40;4.15;;;8.20;92.80;;;;;;5068840;28;21141;-71
2022/10/07 04:35:04;;;;;;;6.22;3.90;;;8.10;92.80;;;;;;5068069;28;20518;-71
2022/10/07 04:37:30;;;;;;;6.60;3.80;;;8.10;93.00;;;;;;5066799;28;20484;-71
2022/10/07 04:39:58;;;;;;;6.00;4.13;;;8.20;93.20;;;;;;5068648;28;20866;-71
2022/10/07 04:45:09;;;;;;;7.95;3.80;;;8.20;92.80;;;;;;5064749;28;20472;-72
2022/10/07 04:47:36;;;;;;;7.00;4.20;;;8.10;92.80;;;;;;5068764;28;20415;-72
2022/10/07 04:50:03;;;;;;;7.90;4.28;;;8.10;92.80;;;;;;5068933;28;20434;-71
2022/10/07 04:52:30;;;;;;;8.52;4.45;;;8.10;93.00;;;;;;5060140;28;20429;-68
2022/10/07 04:54:58;;;;;;;8.70;4.50;;;8.00;92.90;;;;;;5055700;28;20429;-68
2022/10/07 04:57:25;;;;;;;9.40;3.90;;;8.10;93.20;;;;;;5077377;28;20451;-69
2022/10/07 04:59:52;;;;;;;8.05;4.20;;;8.00;93.00;;;;;;5058313;28;20450;-69
2022/10/07 05:02:18;;;;;;;8.68;4.18;;;8.00;93.10;;;;;;5047225;28;20432;-68
2022/10/07 05:04:45;;;;;;;8.88;4.78;;;8.10;93.10;;;;;;5052916;28;20444;-68
2022/10/07 05:07:12;;;;;;;8.15;4.82;;;8.00;93.00;;;;;;5059791;28;20429;-68
2022/10/07 05:09:38;;;;;;;10.43;4.60;;;8.00;93.20;;;;;;5070832;28;20418;-68
2022/10/07 05:12:07;;;;;;;9.43;5.00;;;8.00;93.20;;;;;;5074728;28;20431;-69
2022/10/07 05:14:34;;;;;;;7.57;4.40;;;8.00;93.20;;;;;;5055561;28;20444;-68
2022/10/07 05:17:02;;;;;;;8.57;4.90;;;8.00;93.30;;;;;;5064003;28;20774;-68
2022/10/07 05:19:29;;;;;;;8.38;4.40;;;8.00;93.40;;;;;;5058209;28;20910;-68
2022/10/07 05:21:56;;;;;;;9.98;4.78;;;8.00;93.50;;;;;;5052782;28;20414;-68
2022/10/07 05:24:22;;;;;;;9.63;4.68;;;8.00;93.50;;;;;;5061944;28;21061;-68
2022/10/07 05:26:50;;;;;;;9.00;4.80;;;8.00;93.40;;;;;;5066774;28;20426;-67
2022/10/07 05:29:18;;;;;;;10.45;4.90;;;8.00;93.40;;;;;;5054336;28;20425;-68
2022/10/07 05:31:45;;;;;;;8.18;4.43;;;7.90;93.40;;;;;;5054926;28;20437;-68
2022/10/07 05:34:12;;;;;;;9.45;4.68;;;7.90;93.40;;;;;;5062531;28;20431;-68
2022/10/07 05:36:39;;;;;;;7.80;4.23;;;8.00;93.50;;;;;;5065475;28;20773;-68
2022/10/07 05:39:05;;;;;;;9.85;4.50;;;8.00;93.50;;;;;;5056118;28;20905;-68
2022/10/07 05:41:32;;;;;;;10.00;4.80;;;8.00;93.30;;;;;;5061638;28;20445;-68
2022/10/07 05:44:00;;;;;;;10.93;4.70;;;8.00;93.40;;;;;;5056350;28;20431;-68
2022/10/07 05:46:28;;;;;;;7.22;4.20;;;8.00;93.30;;;;;;5055695;28;20540;-68
2022/10/07 05:48:55;;;;;;;9.17;4.70;;;7.90;93.30;;;;;;5057020;28;20439;-68
2022/10/07 05:51:23;;;;;;;10.85;4.78;;;7.90;93.50;;;;;;5066448;28;20454;-68
2022/10/07 05:53:53;;;;;;;8.82;4.57;;;7.90;93.60;;;;;;5059551;28;20460;-68
2022/10/07 05:56:21;;;;;;;9.60;4.82;;;7.90;93.60;;;;;;5066900;28;20866;-68
2022/10/07 05:58:48;;;;;;;6.43;3.95;;;7.90;93.60;;;;;;5065383;28;20435;-69
2022/10/07 06:01:17;;;;;;;9.07;4.50;;;7.90;93.60;;;;;;5053467;28;20426;-68
2022/10/07 06:03:49;;;;;;;6.78;4.30;;;7.90;93.60;;;;;;5066589;28;20411;-69
2022/10/07 06:06:16;;;;;;;9.20;4.60;;;7.90;93.80;;;;;;5055206;28;20527;-68
2022/10/07 06:08:43;;;;;;;7.82;4.43;;;7.90;93.70;;;;;;5057960;28;20435;-68
2022/10/07 06:13:56;;;;;;;7.43;4.20;;;8.00;93.80;;;;;;5061389;28;20737;-69
2022/10/07 06:16:24;;;;;;;8.40;4.68;;;8.00;93.70;;;;;;5066453;28;20426;-68
2022/10/07 06:18:53;;;;;;;9.35;5.10;;;8.00;93.50;;;;;;5066688;28;20415;-68
2022/10/07 06:21:22;;;;;;;11.32;4.70;;;8.00;93.70;;;;;;5066389;28;20420;-68
2022/10/07 06:23:51;;;;;;;7.63;4.40;;;8.00;93.60;;;;;;5064331;28;20893;-68
2022/10/07 06:26:19;;;;;;;7.78;4.90;;;8.00;93.40;;;;;;5065479;28;20444;-68
2022/10/07 06:28:46;;;;;;;7.00;4.28;;;8.00;93.30;;;;;;5050704;28;20447;-68
2022/10/07 06:31:15;;;;;;;10.13;4.80;;;8.00;93.50;;;;;;5061501;28;20439;-68
2022/10/07 06:33:42;;;;;;;8.23;4.63;;;8.00;93.40;;;;;;5065953;28;20442;-68
2022/10/07 06:36:13;;;;;;;6.05;4.60;;;8.00;93.40;;;;;;5068530;28;20416;-68
2022/10/07 06:38:44;;;;;;;6.55;4.80;;;8.00;93.60;;;;;;5077718;28;20763;-69
2022/10/07 06:41:10;;;;;;;11.07;5.10;;;8.00;93.40;;;;;;5064901;28;20431;-69
2022/10/07 06:43:37;;;;;;;11.43;4.80;;;8.10;93.40;;;;;;5054462;28;20409;-69
2022/10/07 06:46:06;;;;;;;12.35;5.07;;;8.10;93.60;;;;;;5059036;28;20463;-69
2022/10/07 06:48:34;;;;;;;8.90;4.85;;;8.20;93.40;;;;;;5062442;28;20423;-68
2022/10/07 06:51:02;;;;;;;8.68;5.13;;;8.20;93.10;;;;;;5057548;28;20442;-68
2022/10/07 06:53:31;;;;;;;7.18;5.30;;;8.30;93.10;;;;;;5071762;22;20440;-73
2022/10/07 06:56:01;;;;;;;10.48;5.50;;;8.40;92.80;;;;;;5066961;28;20430;-73
2022/10/07 06:58:28;;;;;;;9.90;5.35;;;8.50;92.80;;;;;;5057793;28;20436;-74
2022/10/07 07:00:56;;;;;;;10.13;5.20;;;8.50;92.80;;;;;;5067811;28;20415;-73
2022/10/07 07:03:23;;;;;;;11.07;5.97;;;8.60;92.80;;;;;;5081915;28;20410;-74
2022/10/07 07:05:51;;;;;;;9.90;5.40;;;8.70;93.10;;;;;;5089136;28;20421;-73
2022/10/07 07:08:18;;;;;;;7.45;4.70;;;8.80;92.40;;;;;;5065532;28;21169;-73
2022/10/07 07:10:47;;;;;;;10.27;5.07;;;9.00;92.10;;;;;;5074316;28;20918;-73
2022/10/07 07:13:14;;;;;;;8.07;5.00;;;9.10;92.10;;;;;;5069090;28;20423;-73
2022/10/07 07:15:41;;;;;;;8.02;5.10;;;9.20;91.70;;;;;;5065638;28;21030;-74
2022/10/07 07:18:10;;;;;;;7.33;4.90;;;9.20;91.10;;;;;;5069110;28;20435;-73
2022/10/07 07:20:38;;;;;;;8.68;5.10;;;9.30;90.80;;;;;;5063501;28;20805;-74
2022/10/07 07:23:07;;;;;;;9.32;5.50;;;9.40;90.70;;;;;;5068104;28;20418;-74
2022/10/07 07:25:36;;;;;;;6.78;5.15;;;9.50;90.30;;;;;;5061779;28;20911;-75
2022/10/07 07:28:05;;;;;;;7.10;4.90;;;9.70;90.00;;;;;;5068263;28;20427;-75
2022/10/07 07:30:33;;;;;;;5.80;4.55;;;9.80;89.40;;;;;;5069033;28;20848;-72
2022/10/07 07:33:00;;;;;;;8.55;5.00;;;9.90;87.80;;;;;;5070331;28;20432;-75
2022/10/07 07:35:29;;;;;;;8.60;5.60;;;10.10;87.20;;;;;;5082641;28;20926;-75
2022/10/07 07:37:56;;;;;;;7.35;5.00;;;10.20;87.20;;;;;;5085849;28;20424;-75
2022/10/07 07:40:23;;;;;;;6.25;4.72;;;10.30;86.10;;;;;;5088133;28;20415;-75
2022/10/07 07:42:50;;;;;;;7.50;5.40;;;10.50;85.70;;;;;;5057661;28;20433;-75
2022/10/07 07:45:18;;;;;;;8.73;5.00;;;10.70;84.90;;;;;;5076632;28;20583;-74
2022/10/07 07:47:48;;;;;;;7.38;4.90;;;10.80;83.70;;;;;;5083603;28;20438;-73
2022/10/07 07:50:17;;;;;;;6.57;5.10;;;10.90;82.80;;;;;;5063749;28;20425;-74
2022/10/07 07:52:44;;;;;;;7.57;4.68;;;11.10;82.20;;;;;;5071056;28;20995;-75
2022/10/07 07:55:11;;;;;;;7.25;4.65;;;11.20;81.70;;;;;;5078387;28;20413;-73
2022/10/07 07:57:37;;;;;;;5.93;4.40;;;11.40;80.20;;;;;;5066543;28;20898;-73
2022/10/07 08:00:06;;;;;;;6.18;4.50;;;11.40;79.10;;;;;;5077690;28;20420;-74
2022/10/07 08:02:34;;;;;;;6.53;4.60;;;11.60;79.20;;;;;;5087246;28;20811;-74
2022/10/07 08:05:01;;;;;;;6.57;4.47;;;11.70;78.50;;;;;;5076271;28;20439;-74
2022/10/07 08:07:27;;;;;;;7.68;5.00;;;11.70;77.90;;;;;;5066913;28;20429;-73
2022/10/07 08:09:54;;;;;;;7.50;4.80;;;11.90;77.70;;;;;;5070363;28;20423;-74
2022/10/07 08:12:22;;;;;;;6.13;5.10;;;12.00;77.40;;;;;;5072322;28;20432;-73
2022/10/07 08:14:49;;;;;;;6.07;4.80;;;12.00;76.60;;;;;;5072167;28;20435;-73
2022/10/07 08:17:15;;;;;;;8.30;5.20;;;12.20;76.60;;;;;;5068440;28;20422;-74
2022/10/07 08:19:43;;;;;;;6.45;5.03;;;12.40;75.90;;;;;;5059906;28;20802;-74
2022/10/07 08:22:12;;;;;;;8.05;4.90;;;12.50;75.70;;;;;;5080771;28;20466;-73
2022/10/07 08:24:39;;;;;;;6.20;4.47;;;12.90;74.10;;;;;;5073970;28;20830;-73
2022/10/07 08:27:06;;;;;;;6.88;4.78;;;12.90;73.40;;;;;;5063875;28;20435;-73
2022/10/07 08:29:32;;;;;;;5.30;4.70;;;13.00;73.00;;;;;;5054476;28;20455;-73
2022/10/07 08:31:59;;;;;;;7.07;4.50;;;13.00;73.00;;;;;;5075218;28;20421;-73
2022/10/07 08:34:26;;;;;;;7.38;5.38;;;13.20;73.20;;;;;;5087292;28;20422;-73
2022/10/07 08:36:55;;;;;;;6.40;4.57;;;13.40;71.90;;;;;;5088322;28;20418;-73
2022/10/07 08:39:23;;;;;;;8.10;4.60;;;13.50;71.90;;;;;;5084578;28;20425;-73
2022/10/07 08:42:01;;;;;;;6.40;4.35;;;13.70;71.60;;;;;;5071825;28;20925;-73
2022/10/07 08:44:31;;;;;;;8.63;5.47;;;14.00;70.40;;;;;;5067156;28;20480;-73
2022/10/07 08:47:09;;;;;;;7.63;5.13;;;14.20;69.10;;;;;;5079342;28;20448;-74
2022/10/07 08:49:52;;;;;;;6.03;4.53;;;14.50;68.90;;;;;;5073207;28;20418;-74
2022/10/07 08:52:37;;;;;;;8.52;5.22;;;14.80;67.90;;;;;;5063594;28;20427;-73
2022/10/07 08:55:15;;;;;;;8.23;4.80;;;15.00;67.10;;;;;;5070408;28;20778;-73
2022/10/07 08:57:55;;;;;;;7.57;4.70;;;15.20;66.50;;;;;;5071696;28;20988;-73
2022/10/07 09:00:23;;;;;;;7.47;4.95;;;15.40;65.70;;;;;;5054051;28;20431;-73
2022/10/07 09:03:06;;;;;;;7.47;4.63;;;15.70;64.30;;;;;;5071477;28;20463;-73
2022/10/07 09:05:37;;;;;;;6.97;4.68;;;15.80;63.70;;;;;;5083447;28;20900;-74
2022/10/07 09:08:14;;;;;;;6.28;4.50;;;16.00;63.50;;;;;;5069470;28;20423;-74
2022/10/07 09:10:44;;;;;;;7.70;4.70;;;16.10;63.00;;;;;;5088942;28;20416;-73
2022/10/07 09:13:14;;;;;;;5.83;4.80;;;16.30;62.20;;;;;;5093920;28;20517;-74
2022/10/07 09:15:46;;;;;;;7.50;4.60;;;16.60;61.50;;;;;;5092950;28;20418;-73
2022/10/07 09:18:19;;;;;;;5.43;4.28;;;16.80;61.00;;;;;;5082001;28;21034;-75
2022/10/07 09:20:52;;;;;;;7.25;4.70;;;16.80;61.30;;;;;;5065302;28;20431;-76
2022/10/07 09:23:22;;;;;;;6.65;4.20;;;17.00;59.50;;;;;;5082833;28;20473;-76
2022/10/07 09:25:50;;;;;;;5.90;4.30;;;17.10;59.80;;;;;;5082893;28;20422;-76
2022/10/07 09:28:19;;;;;;;7.00;4.60;;;17.10;60.20;;;;;;5089870;28;20455;-76
2022/10/07 09:30:45;;;;;;;10.75;8.25;;;17.30;59.50;;;;;;5081495;28;20418;-75
2022/10/07 09:33:15;;;;;;;9.90;7.35;;;17.60;59.50;;;;;;5078555;28;20429;-75
2022/10/07 09:35:51;;;;;;;8.95;6.20;;;18.00;57.90;;;;;;5091842;28;20414;-75
2022/10/07 09:38:31;;;;;;;9.60;8.23;;;18.20;57.00;;;;;;5092121;28;20425;-75
2022/10/07 09:41:18;;;;;;;6.90;4.70;;;18.30;56.90;;;;;;5074072;28;20419;-77
2022/10/07 09:43:59;;;;;;;5.97;4.10;;;18.70;56.10;;;;;;5069538;28;20412;-75
2022/10/07 09:46:46;;;;;;;5.13;3.88;;;18.90;54.70;;;;;;5084343;28;20424;-75
2022/10/07 09:49:31;;;;;;;5.40;4.00;;;18.80;55.00;;;;;;5072834;28;20431;-76
2022/10/07 09:51:59;;;;;;;6.35;4.40;;;18.90;54.80;;;;;;5083007;28;20433;-77
2022/10/07 09:54:29;;;;;;;7.65;4.00;;;19.20;54.50;;;;;;5078709;28;20437;-76
2022/10/07 09:56:57;;;;;;;7.25;3.80;;;19.50;53.20;;;;;;5074830;28;20932;-76
2022/10/07 09:59:25;;;;;;;6.15;3.70;;;19.90;52.40;;;;;;5077261;28;20420;-77
2022/10/07 10:01:54;;;;;;;5.88;3.70;;;19.80;52.30;;;;;;5083796;28;20417;-76
2022/10/07 10:04:26;;;;;;;4.47;3.30;;;19.80;52.40;;;;;;5091243;28;20412;-77
2022/10/07 10:06:56;;;;;;;7.33;3.80;;;20.00;51.40;;;;;;5078152;28;20408;-77
2022/10/07 10:09:27;;;;;;;6.20;4.03;;;20.20;51.20;;;;;;5087121;28;20451;-77
2022/10/07 10:12:12;;;;;;;7.05;3.13;;;20.30;50.20;;;;;;5074573;28;20738;-75
2022/10/07 10:14:50;;;;;;;6.55;3.67;;;20.40;50.40;;;;;;5075374;28;20458;-76
2022/10/07 10:17:27;;;;;;;7.60;3.55;;;20.50;50.20;;;;;;5089455;28;20429;-75
2022/10/07 10:19:54;;;;;;;6.32;3.13;;;20.60;50.50;;;;;;5082055;28;20424;-74
2022/10/07 10:22:26;;;;;;;7.25;3.30;;;21.00;48.80;;;;;;5063603;28;20445;-74
2022/10/07 10:27:49;;;;;;;5.20;3.03;;;21.20;48.90;;;;;;5073047;28;20493;-75
2022/10/07 10:30:20;;;;;;;6.60;3.30;;;21.40;48.50;;;;;;5075198;28;20430;-76
2022/10/07 10:33:10;;;;;;;5.40;2.80;;;21.50;47.60;;;;;;5090046;28;20425;-76
2022/10/07 10:35:42;;;;;;;5.93;3.13;;;21.40;47.80;;;;;;5090147;28;20471;-75
2022/10/07 10:38:32;;;;;;;3.67;2.42;;;21.30;47.90;;;;;;5090798;28;20420;-76
2022/10/07 10:41:08;;;;;;;7.40;2.67;;;21.40;48.40;;;;;;5074147;28;20477;-76
2022/10/07 10:43:50;;;;;;;5.55;2.50;;;21.70;47.10;;;;;;5083871;28;20406;-75
2022/10/07 10:46:33;;;;;;;4.90;2.75;;;22.00;45.90;;;;;;5089138;28;20912;-75
2022/10/07 10:49:09;;;;;;;5.63;2.60;;;22.40;45.50;;;;;;5081564;28;20431;-74
2022/10/07 10:51:54;;;;;;;6.90;3.17;;;22.60;44.60;;;;;;5066195;28;20435;-76
2022/10/07 10:54:29;;;;;;;6.07;2.70;;;22.80;44.00;;;;;;5073756;28;20484;-71
2022/10/07 10:57:04;;;;;;;6.03;2.08;;;23.10;43.30;;;;;;5070455;28;20431;-74
2022/10/07 10:59:54;;;;;;;7.68;2.70;;;23.20;42.30;;;;;;5087413;28;20413;-74
2022/10/07 11:02:45;;;;;;;4.72;2.10;;;23.10;42.70;;;;;;5070507;28;20423;-77
2022/10/07 11:05:16;;;;;;;5.70;2.20;;;23.30;41.40;;;;;;5064292;28;20430;-79
2022/10/07 11:07:47;;;;;;;4.85;2.00;;;23.30;40.30;;;;;;5071796;28;20501;-78
2022/10/07 11:10:20;;;;;;;5.70;2.17;;;23.00;40.70;;;;;;5069764;28;20490;-79
2022/10/07 11:12:55;;;;;;;5.13;2.00;;;23.00;41.50;;;;;;5089726;28;20425;-77
2022/10/07 11:15:25;;;;;;;3.97;1.70;;;23.00;41.90;;;;;;5092424;28;20432;-78
2022/10/07 11:17:55;;;;;;;7.32;2.58;;;23.20;40.70;;;;;;5084540;28;20897;-79
2022/10/07 11:20:30;;;;;;;6.10;1.98;;;23.40;39.60;;;;;;5092215;28;20410;-79
2022/10/07 11:23:00;;;;;;;6.40;2.00;;;23.30;39.80;;;;;;5084119;28;20507;-77
2022/10/07 11:25:36;;;;;;;5.45;1.80;;;23.40;39.90;;;;;;5075578;28;20789;-80
2022/10/07 11:28:14;;;;;;;4.95;1.90;;;23.50;37.80;;;;;;5093101;28;20786;-78
2022/10/07 11:30:48;;;;;;;6.57;2.20;;;22.90;38.10;;;;;;5089916;28;20422;-78
2022/10/07 11:33:23;;;;;;;6.35;1.73;;;22.50;38.80;;;;;;5087852;28;20420;-79
2022/10/07 11:35:54;;;;;;;6.88;1.90;;;22.40;39.70;;;;;;5085808;28;20413;-78
2022/10/07 11:38:24;;;;;;;6.07;2.05;;;22.60;39.10;;;;;;5074790;28;20428;-80
2022/10/07 11:40:54;;;;;;;5.90;1.55;;;22.50;39.20;;;;;;5078125;28;20416;-78
2022/10/07 11:43:27;;;;;;;4.35;1.70;;;22.60;39.10;;;;;;5082594;28;20456;-77
2022/10/07 11:45:57;;;;;;;4.80;1.40;;;22.90;38.90;;;;;;5088814;28;20418;-77
2022/10/07 11:48:28;;;;;;;5.23;1.80;;;22.70;38.00;;;;;;5088807;28;20425;-75
2022/10/07 11:51:01;;;;;;;4.90;1.80;;;22.50;38.80;;;;;;5103770;28;20490;-78
2022/10/07 11:53:32;;;;;;;4.50;1.80;;;22.70;38.90;;;;;;5097329;28;20424;-74
2022/10/07 11:56:01;;;;;;;4.47;1.52;;;23.00;38.40;;;;;;5078490;28;20424;-75
2022/10/07 11:58:34;;;;;;;5.28;1.70;;;23.00;38.00;;;;;;5073936;28;20419;-74
2022/10/07 12:01:44;;;;;;;4.75;1.60;;;23.00;38.30;;;;;;5074120;28;20436;-75
2022/10/07 12:04:37;;;;;;;4.57;1.50;;;23.20;38.60;;;;;;5049198;28;20480;-71
2022/10/07 12:07:39;;;;;;;5.47;1.60;;;23.50;36.50;;;;;;5066057;28;20863;-71
2022/10/07 12:10:36;;;;;;;4.72;1.50;;;23.50;37.00;;;;;;5070602;28;20475;-71
2022/10/07 12:13:39;;;;;;;4.55;1.75;;;23.30;37.00;;;;;;5057724;28;20412;-71
2022/10/07 12:16:51;;;;;;;5.03;2.00;;;23.70;36.10;;;;;;5063475;28;20420;-70
2022/10/07 12:19:20;;;;;;;5.93;1.67;;;24.00;35.60;;;;;;5041408;28;20419;-71
2022/10/07 12:22:14;;;;;;;4.97;1.98;;;24.20;35.10;;;;;;5079925;28;20505;-73
2022/10/07 12:24:44;;;;;;;4.15;1.80;;;23.90;35.20;;;;;;5068566;28;20408;-70
2022/10/07 12:27:15;;;;;;;5.57;1.80;;;23.80;34.40;;;;;;5075579;28;20509;-74
2022/10/07 12:29:57;;;;;;;5.68;1.73;;;23.70;35.50;;;;;;5072962;28;20890;-74
2022/10/07 12:33:01;;;;;;;6.75;1.70;;;24.10;35.70;;;;;;5072876;28;20424;-72
2022/10/07 12:35:48;;;;;;;3.40;1.70;;;24.60;34.10;;;;;;5060782;28;20423;-72
2022/10/07 12:38:24;;;;;;;4.60;1.70;;;24.80;34.20;;;;;;5072948;28;20414;-72
2022/10/07 12:41:00;;;;;;;5.82;2.20;;;24.60;34.30;;;;;;5080410;28;20429;-73
2022/10/07 12:43:37;;;;;;;5.65;2.20;;;24.40;34.10;;;;;;5075340;28;20427;-72
2022/10/07 12:46:10;;;;;;;3.42;1.40;;;24.20;33.60;;;;;;5074546;28;20425;-73
2022/10/07 12:48:53;;;;;;;4.28;1.80;;;24.50;33.60;;;;;;5081686;28;20415;-72
2022/10/07 12:51:26;;;;;;;5.68;1.70;;;24.70;32.60;;;;;;5075531;28;20435;-71
2022/10/07 12:53:53;;;;;;;4.35;1.65;;;24.90;34.00;;;;;;5115936;22;20442;-71
2022/10/07 12:56:23;;;;;;;5.10;1.50;;;25.20;33.00;;;;;;5105076;27;20423;-70
2022/10/07 13:02:23;;;;;;;4.70;1.52;;;25.90;32.70;;;;;;5098340;28;20464;-69
2022/10/07 13:05:11;;;;;;;5.63;1.98;;;26.00;32.50;;;;;;5087366;28;20479;-70
2022/10/07 13:08:07;;;;;;;5.63;1.70;;;26.20;31.60;;;;;;5084380;28;20437;-69
2022/10/07 13:11:04;;;;;;;6.32;1.67;;;26.20;32.00;;;;;;5037185;28;20496;-68
2022/10/07 13:13:38;;;;;;;5.60;1.70;;;25.90;32.60;;;;;;5074886;28;20482;-68
2022/10/07 13:16:10;;;;;;;4.85;2.00;;;25.60;31.80;;;;;;5085099;28;20410;-69
2022/10/07 13:18:43;;;;;;;4.95;1.52;;;25.40;32.50;;;;;;5084070;28;20430;-69
2022/10/07 13:21:20;;;;;;;3.40;1.80;;;25.30;33.00;;;;;;5086497;28;20429;-70
2022/10/07 13:23:51;;;;;;;6.85;1.50;;;25.20;32.20;;;;;;5072937;28;20733;-70
2022/10/07 13:26:20;;;;;;;2.80;1.30;;;25.00;32.00;;;;;;5085992;28;20517;-73
2022/10/07 13:28:50;;;;;;;3.25;1.75;;;24.60;33.10;;;;;;5092525;28;20432;-71
2022/10/07 13:31:20;;;;;;;4.90;1.50;;;24.90;32.30;;;;;;5090802;28;20480;-71